createdAt,value
2019-05-16T00:01:19.229Z,99.90
2019-05-16T00:03:49.123Z,99.90
2019-05-16T00:06:18.819Z,99.90
2019-05-16T00:08:48.387Z,99.90
2019-05-16T00:11:18.153Z,99.90
2019-05-16T00:13:48.907Z,99.90
2019-05-16T00:16:18.938Z,99.90
2019-05-16T00:18:48.589Z,99.90
2019-05-16T00:21:18.371Z,99.90
2019-05-16T00:23:48.667Z,99.90
2019-05-16T00:26:19.737Z,99.90
2019-05-16T00:28:49.775Z,99.90
2019-05-16T00:31:19.415Z,99.90
2019-05-16T00:33:49.006Z,99.90
2019-05-16T00:36:19.097Z,99.90
2019-05-16T00:38:49.217Z,99.90
2019-05-16T00:41:18.930Z,99.90
2019-05-16T00:43:48.738Z,99.90
2019-05-16T00:46:20.078Z,99.90
2019-05-16T00:48:50.063Z,99.90
2019-05-16T00:51:19.919Z,99.90
2019-05-16T00:53:49.766Z,99.90
2019-05-16T00:56:20.054Z,99.90
2019-05-16T00:58:49.458Z,99.90
2019-05-16T01:01:19.216Z,99.90
2019-05-16T01:03:48.771Z,99.90
2019-05-16T01:06:22.818Z,99.90
2019-05-16T01:08:49.995Z,99.90
2019-05-16T01:11:19.603Z,99.90
2019-05-16T01:13:49.267Z,99.90
2019-05-16T01:16:18.902Z,99.90
2019-05-16T01:18:48.834Z,99.90
2019-05-16T01:21:18.817Z,99.90
2019-05-16T01:23:48.800Z,99.90
2019-05-16T01:26:18.723Z,99.90
2019-05-16T01:28:48.469Z,99.90
2019-05-16T01:31:19.165Z,99.90
2019-05-16T01:33:48.976Z,99.90
2019-05-16T01:36:32.985Z,99.90
2019-05-16T01:38:50.001Z,99.90
2019-05-16T01:41:19.780Z,99.90
2019-05-16T01:43:49.483Z,99.90
2019-05-16T01:46:19.269Z,99.90
2019-05-16T01:48:49.169Z,99.90
2019-05-16T01:51:18.791Z,99.90
2019-05-16T01:53:48.921Z,99.90
2019-05-16T01:56:19.465Z,99.90
2019-05-16T01:58:49.670Z,99.90
2019-05-16T02:01:19.788Z,99.90
2019-05-16T02:03:49.969Z,99.90
2019-05-16T02:06:19.524Z,99.90
2019-05-16T02:08:49.644Z,99.90
2019-05-16T02:11:19.506Z,99.90
2019-05-16T02:13:49.467Z,99.90
2019-05-16T02:16:19.029Z,99.90
2019-05-16T02:18:49.014Z,99.90
2019-05-16T02:21:18.721Z,99.90
2019-05-16T02:23:51.495Z,99.90
2019-05-16T02:26:20.048Z,99.90
2019-05-16T02:28:50.696Z,99.90
2019-05-16T02:31:22.854Z,99.90
2019-05-16T02:33:52.373Z,99.90
2019-05-16T02:36:22.049Z,99.90
2019-05-16T02:38:55.646Z,99.90
2019-05-16T02:41:23.295Z,99.90
2019-05-16T02:43:53.102Z,99.90
2019-05-16T02:46:22.807Z,99.90
2019-05-16T02:48:52.323Z,99.90
2019-05-16T02:51:21.889Z,99.90
2019-05-16T02:53:51.760Z,99.90
2019-05-16T02:56:21.567Z,99.90
2019-05-16T02:58:52.055Z,99.90
2019-05-16T03:01:22.034Z,99.90
2019-05-16T03:03:52.076Z,99.90
2019-05-16T03:06:21.992Z,99.90
2019-05-16T03:08:54.093Z,99.90
2019-05-16T03:11:24.883Z,99.90
2019-05-16T03:13:55.575Z,99.90
2019-05-16T03:16:26.850Z,99.90
2019-05-16T03:18:57.185Z,99.90
2019-05-16T03:21:30.888Z,99.90
2019-05-16T03:24:00.984Z,99.90
2019-05-16T03:26:31.413Z,99.90
2019-05-16T03:29:01.232Z,99.90
2019-05-16T03:31:33.994Z,99.90
2019-05-16T03:34:07.355Z,99.90
2019-05-16T03:36:34.332Z,99.90
2019-05-16T03:39:06.025Z,99.90
2019-05-16T03:41:35.804Z,99.90
2019-05-16T03:44:05.748Z,99.90
2019-05-16T03:46:35.166Z,99.90
2019-05-16T03:49:04.884Z,99.90
2019-05-16T03:51:34.123Z,99.90
2019-05-16T03:54:03.401Z,99.90
2019-05-16T03:56:32.599Z,99.90
2019-05-16T03:59:01.859Z,99.90
2019-05-16T04:01:31.506Z,99.90
2019-05-16T04:04:01.621Z,99.90
2019-05-16T04:06:31.291Z,99.90
2019-05-16T04:09:01.598Z,99.90
2019-05-16T04:11:32.134Z,99.90
2019-05-16T04:14:01.961Z,99.90
2019-05-16T04:16:31.641Z,99.90
2019-05-16T04:19:01.907Z,99.90
2019-05-16T04:21:32.519Z,99.90
2019-05-16T04:24:01.741Z,99.90
2019-05-16T04:26:35.265Z,99.90
2019-05-16T04:29:01.917Z,99.90
2019-05-16T04:31:31.157Z,99.90
2019-05-16T04:34:01.260Z,99.90
2019-05-16T04:36:32.644Z,99.90
2019-05-16T04:39:02.408Z,99.90
2019-05-16T04:41:31.743Z,99.90
2019-05-16T04:44:04.453Z,99.90
2019-05-16T04:46:32.231Z,99.90
2019-05-16T04:49:01.890Z,99.90
2019-05-16T04:51:31.309Z,99.90
2019-05-16T04:54:01.955Z,99.90
2019-05-16T04:56:31.360Z,99.90
2019-05-16T04:59:00.845Z,99.90
2019-05-16T05:01:30.715Z,99.90
2019-05-16T05:04:10.174Z,99.90
2019-05-16T05:06:31.531Z,99.90
2019-05-16T05:09:03.410Z,99.90
2019-05-16T05:11:31.742Z,99.90
2019-05-16T05:14:01.115Z,99.90
2019-05-16T05:16:30.749Z,99.90
2019-05-16T05:19:00.450Z,99.90
2019-05-16T05:21:31.408Z,99.90
2019-05-16T05:24:00.728Z,99.90
2019-05-16T05:26:30.678Z,99.90
2019-05-16T05:28:59.883Z,99.90
2019-05-16T05:31:34.388Z,99.90
2019-05-16T05:34:01.325Z,99.90
2019-05-16T05:36:30.629Z,99.90
2019-05-16T05:39:08.986Z,99.90
2019-05-16T05:41:31.605Z,99.90
2019-05-16T05:44:00.837Z,99.90
2019-05-16T05:46:31.732Z,99.90
2019-05-16T05:49:01.057Z,99.90
2019-05-16T05:51:30.313Z,99.90
2019-05-16T05:54:00.202Z,99.90
2019-05-16T05:56:30.531Z,99.90
2019-05-16T05:59:01.566Z,99.90
2019-05-16T06:01:31.707Z,99.90
2019-05-16T06:04:00.946Z,99.90
2019-05-16T06:06:30.454Z,99.90
2019-05-16T06:09:00.665Z,99.90
2019-05-16T06:11:30.751Z,99.90
2019-05-16T06:14:00.521Z,99.90
2019-05-16T06:16:30.854Z,99.90
2019-05-16T06:19:00.934Z,99.90
2019-05-16T06:21:33.419Z,99.90
2019-05-16T06:24:01.098Z,99.90
2019-05-16T06:26:30.415Z,99.90
2019-05-16T06:29:00.677Z,99.90
2019-05-16T06:31:31.330Z,99.90
2019-05-16T06:34:08.468Z,99.90
2019-05-16T06:36:31.682Z,99.90
2019-05-16T06:39:00.856Z,99.90
2019-05-16T06:41:30.458Z,99.90
2019-05-16T06:44:00.010Z,99.90
2019-05-16T06:46:30.696Z,99.90
2019-05-16T06:49:00.271Z,99.90
2019-05-16T06:51:30.534Z,99.90
2019-05-16T06:54:00.534Z,99.90
2019-05-16T06:56:30.839Z,99.90
2019-05-16T06:59:00.869Z,99.90
2019-05-16T07:01:30.458Z,99.90
2019-05-16T07:04:00.198Z,99.90
2019-05-16T07:06:50.548Z,99.90
2019-05-16T07:09:01.150Z,99.90
2019-05-16T07:11:30.690Z,99.90
2019-05-16T07:14:00.587Z,99.90
2019-05-16T07:16:30.189Z,99.90
2019-05-16T07:19:00.810Z,99.90
2019-05-16T07:21:31.228Z,99.90
2019-05-16T07:24:00.615Z,99.90
2019-05-16T07:26:31.004Z,99.90
2019-05-16T07:29:00.487Z,99.90
2019-05-16T07:31:30.191Z,99.90
2019-05-16T07:34:00.785Z,99.90
2019-05-16T07:36:31.425Z,99.90
2019-05-16T07:39:00.954Z,99.90
2019-05-16T07:41:31.042Z,99.90
2019-05-16T07:44:01.066Z,99.90
2019-05-16T07:46:31.513Z,99.90
2019-05-16T07:49:01.332Z,99.90
2019-05-16T07:51:31.148Z,99.90
2019-05-16T07:54:00.352Z,99.90
2019-05-16T07:56:31.007Z,99.90
2019-05-16T07:59:00.975Z,99.90
2019-05-16T08:01:30.883Z,99.90
2019-05-16T08:04:00.487Z,99.90
2019-05-16T08:06:33.664Z,98.10
2019-05-16T08:09:01.065Z,98.60
2019-05-16T08:11:30.645Z,98.20
2019-05-16T08:14:00.979Z,98.40
2019-05-16T08:16:30.727Z,98.20
2019-05-16T08:21:31.352Z,95.30
2019-05-16T08:24:07.035Z,94.00
2019-05-16T08:26:33.991Z,93.10
2019-05-16T08:29:02.953Z,93.50
2019-05-16T08:31:32.242Z,94.40
2019-05-16T08:34:01.951Z,95.20
2019-05-16T08:36:31.485Z,95.10
2019-05-16T08:39:01.245Z,95.80
2019-05-16T08:41:31.717Z,95.60
2019-05-16T08:44:01.490Z,95.80
2019-05-16T08:46:32.269Z,96.60
2019-05-16T08:49:01.933Z,96.30
2019-05-16T08:51:33.671Z,95.50
2019-05-16T08:54:02.540Z,94.60
2019-05-16T08:56:32.220Z,94.50
2019-05-16T08:59:03.167Z,94.40
2019-05-16T09:01:34.989Z,94.10
2019-05-16T09:04:03.487Z,93.40
2019-05-16T09:06:32.754Z,92.80
2019-05-16T09:09:12.380Z,92.50
2019-05-16T09:10:26.224Z,97.00
2019-05-16T09:11:41.419Z,91.80
2019-05-16T09:14:03.975Z,90.90
2019-05-16T09:16:33.402Z,90.70
2019-05-16T09:19:02.575Z,90.60
2019-05-16T09:21:31.749Z,92.20
2019-05-16T09:24:01.002Z,90.90
2019-05-16T09:26:30.193Z,91.50
2019-05-16T09:28:59.818Z,90.80
2019-05-16T09:31:29.130Z,90.70
2019-05-16T09:33:58.573Z,91.00
2019-05-16T09:36:28.301Z,91.20
2019-05-16T09:38:57.952Z,91.60
2019-05-16T09:41:46.275Z,91.60
2019-05-16T09:43:59.337Z,91.60
2019-05-16T09:46:28.875Z,90.70
2019-05-16T09:49:15.851Z,91.00
2019-05-16T09:51:29.342Z,88.20
2019-05-16T09:53:58.616Z,87.70
2019-05-16T09:56:27.933Z,86.70
2019-05-16T09:58:57.530Z,87.00
2019-05-16T10:01:27.584Z,87.40
2019-05-16T10:03:57.059Z,87.20
2019-05-16T10:06:27.594Z,87.40
2019-05-16T10:08:57.074Z,87.80
2019-05-16T10:11:31.308Z,87.00
2019-05-16T10:13:57.530Z,86.00
2019-05-16T10:16:27.500Z,87.20
2019-05-16T10:18:57.244Z,87.30
2019-05-16T10:21:27.159Z,85.30
2019-05-16T10:23:56.550Z,83.90
2019-05-16T10:26:27.784Z,82.50
2019-05-16T10:28:57.848Z,82.70
2019-05-16T10:31:41.300Z,83.90
2019-05-16T10:33:59.109Z,86.10
2019-05-16T10:36:28.311Z,87.80
2019-05-16T10:38:59.157Z,88.50
2019-05-16T10:41:28.582Z,86.80
2019-05-16T10:43:57.810Z,84.50
2019-05-16T10:46:27.255Z,82.60
2019-05-16T10:48:57.785Z,82.30
2019-05-16T10:51:27.228Z,83.50
2019-05-16T10:54:09.006Z,84.10
2019-05-16T10:56:27.640Z,82.80
2019-05-16T10:59:26.025Z,82.70
2019-05-16T11:01:31.211Z,81.30
2019-05-16T11:03:59.137Z,82.20
2019-05-16T11:06:29.273Z,83.30
2019-05-16T11:08:58.841Z,82.20
2019-05-16T11:11:28.168Z,81.10
2019-05-16T11:13:57.493Z,79.20
2019-05-16T11:16:27.559Z,77.60
2019-05-16T11:19:13.660Z,79.00
2019-05-16T11:21:27.910Z,78.90
2019-05-16T11:23:57.146Z,81.20
2019-05-16T11:26:29.904Z,80.40
2019-05-16T11:28:57.257Z,78.50
2019-05-16T11:31:26.808Z,79.00
2019-05-16T11:33:57.488Z,77.80
2019-05-16T11:36:27.167Z,76.70
2019-05-16T11:39:01.394Z,74.80
2019-05-16T11:41:27.714Z,76.30
2019-05-16T11:43:57.011Z,77.00
2019-05-16T11:46:28.073Z,78.10
2019-05-16T11:48:57.410Z,78.70
2019-05-16T11:51:27.405Z,79.20
2019-05-16T11:54:00.082Z,78.40
2019-05-16T11:56:27.636Z,79.60
2019-05-16T11:58:57.189Z,79.90
2019-05-16T12:01:27.580Z,81.20
2019-05-16T12:03:57.665Z,83.20
2019-05-16T12:06:27.113Z,81.40
2019-05-16T12:08:56.454Z,78.80
2019-05-16T12:11:27.481Z,78.70
2019-05-16T12:13:57.046Z,78.00
2019-05-16T12:16:27.521Z,80.40
2019-05-16T12:18:57.271Z,80.70
2019-05-16T12:21:28.897Z,77.80
2019-05-16T12:23:59.425Z,76.40
2019-05-16T12:26:29.017Z,76.10
2019-05-16T12:28:58.287Z,76.50
2019-05-16T12:31:27.875Z,76.00
2019-05-16T12:33:59.782Z,75.30
2019-05-16T12:36:31.563Z,75.80
2019-05-16T12:39:02.994Z,78.90
2019-05-16T12:41:32.289Z,81.10
2019-05-16T12:44:07.596Z,83.10
2019-05-16T12:46:37.073Z,83.50
2019-05-16T12:49:09.098Z,83.70
2019-05-16T12:51:38.921Z,82.80
2019-05-16T12:54:08.211Z,81.40
2019-05-16T12:56:40.380Z,80.80
2019-05-16T12:59:09.942Z,77.90
2019-05-16T13:01:39.220Z,79.10
2019-05-16T13:04:12.021Z,80.50
2019-05-16T13:06:39.634Z,82.90
2019-05-16T13:09:18.454Z,84.50
2019-05-16T13:11:48.572Z,86.00
2019-05-16T13:14:18.642Z,84.30
2019-05-16T13:16:48.957Z,84.10
2019-05-16T13:19:18.675Z,85.90
2019-05-16T13:21:48.761Z,87.80
2019-05-16T13:24:22.147Z,88.00
2019-05-16T13:26:51.753Z,89.00
2019-05-16T13:29:22.909Z,89.20
2019-05-16T13:31:52.250Z,88.40
2019-05-16T13:34:21.516Z,89.40
2019-05-16T13:36:51.055Z,90.50
2019-05-16T13:39:20.229Z,90.80
2019-05-16T13:41:51.355Z,91.00
2019-05-16T13:44:23.112Z,90.70
2019-05-16T13:46:51.875Z,88.20
2019-05-16T13:49:21.360Z,86.60
2019-05-16T13:51:50.621Z,89.20
2019-05-16T13:54:20.337Z,90.90
2019-05-16T13:56:49.846Z,91.60
2019-05-16T13:59:19.080Z,92.00
2019-05-16T14:01:48.292Z,91.90
2019-05-16T14:04:17.683Z,91.60
2019-05-16T14:06:47.684Z,92.50
2019-05-16T14:09:17.183Z,92.30
2019-05-16T14:11:46.615Z,90.60
2019-05-16T14:14:25.563Z,90.00
2019-05-16T14:16:47.194Z,90.10
2019-05-16T14:19:17.547Z,91.20
2019-05-16T14:21:47.870Z,91.30
2019-05-16T14:24:18.020Z,88.70
2019-05-16T14:26:47.519Z,88.10
2019-05-16T14:29:17.638Z,89.60
2019-05-16T14:31:47.387Z,90.80
2019-05-16T14:34:18.072Z,90.60
2019-05-16T14:36:48.207Z,89.70
2019-05-16T14:39:19.520Z,89.20
2019-05-16T14:41:48.307Z,88.40
2019-05-16T14:44:18.539Z,87.90
2019-05-16T14:46:49.256Z,87.00
2019-05-16T14:49:19.401Z,85.80
2019-05-16T14:51:49.267Z,82.90
2019-05-16T14:54:19.785Z,81.90
2019-05-16T14:56:50.824Z,80.10
2019-05-16T14:59:20.107Z,77.90
2019-05-16T15:01:49.675Z,80.70
2019-05-16T15:04:18.957Z,77.60
2019-05-16T15:06:48.535Z,77.90
2019-05-16T15:09:17.925Z,81.20
2019-05-16T15:11:47.066Z,78.70
2019-05-16T15:14:17.348Z,75.20
2019-05-16T15:16:49.701Z,70.80
2019-05-16T15:19:18.841Z,74.40
2019-05-16T15:21:47.974Z,78.60
2019-05-16T15:24:17.798Z,81.10
2019-05-16T15:26:47.532Z,83.90
2019-05-16T15:29:16.743Z,86.20
2019-05-16T15:31:46.875Z,86.40
2019-05-16T15:34:16.296Z,87.90
2019-05-16T15:36:46.781Z,90.80
2019-05-16T15:39:17.008Z,91.00
2019-05-16T15:41:46.461Z,91.70
2019-05-16T15:44:17.107Z,92.50
2019-05-16T15:46:47.848Z,93.10
2019-05-16T15:49:17.624Z,93.60
2019-05-16T15:51:47.745Z,94.60
2019-05-16T15:54:21.293Z,94.90
2019-05-16T15:56:51.652Z,95.40
2019-05-16T15:59:21.247Z,95.90
2019-05-16T16:01:50.743Z,96.10
2019-05-16T16:04:20.070Z,96.00
2019-05-16T16:06:49.420Z,96.50
2019-05-16T16:09:19.083Z,96.50
2019-05-16T16:11:48.796Z,97.10
2019-05-16T16:14:18.758Z,97.10
2019-05-16T16:16:48.076Z,97.70
2019-05-16T16:19:17.592Z,97.30
2019-05-16T16:21:47.402Z,98.10
2019-05-16T16:24:19.090Z,98.40
2019-05-16T16:26:47.897Z,98.80
2019-05-16T16:29:17.133Z,99.50
2019-05-16T16:31:47.669Z,99.90
2019-05-16T16:34:17.742Z,99.90
2019-05-16T16:36:47.548Z,99.90
2019-05-16T16:39:16.928Z,99.90
2019-05-16T16:41:47.893Z,99.90
2019-05-16T16:44:17.700Z,99.90
2019-05-16T16:46:47.255Z,99.90
2019-05-16T16:49:17.287Z,99.90
2019-05-16T16:51:48.115Z,99.90
2019-05-16T16:54:17.409Z,99.90
2019-05-16T16:56:47.319Z,99.90
2019-05-16T16:59:17.244Z,99.90
2019-05-16T17:01:47.052Z,99.90
2019-05-16T17:04:17.448Z,99.90
2019-05-16T17:06:47.037Z,99.90
2019-05-16T17:09:16.701Z,99.90
2019-05-16T17:11:46.552Z,99.90
2019-05-16T17:14:17.347Z,99.90
2019-05-16T17:16:47.532Z,99.90
2019-05-16T17:19:17.146Z,99.90
2019-05-16T17:21:55.378Z,99.90
2019-05-16T17:24:17.623Z,99.90
2019-05-16T17:26:47.826Z,99.90
2019-05-16T17:29:17.586Z,99.90
2019-05-16T17:31:53.652Z,99.90
2019-05-16T17:34:18.090Z,99.90
2019-05-16T17:36:47.417Z,99.90
2019-05-16T17:39:18.245Z,99.90
2019-05-16T17:41:54.727Z,99.90
2019-05-16T17:44:20.237Z,99.90
2019-05-16T17:46:49.429Z,99.90
2019-05-16T17:49:18.965Z,99.90
2019-05-16T17:51:48.849Z,99.90
2019-05-16T17:54:18.793Z,99.90
2019-05-16T17:56:49.174Z,99.90
2019-05-16T17:59:18.448Z,99.90
2019-05-16T18:01:47.978Z,99.90
2019-05-16T18:04:17.366Z,99.90
2019-05-16T18:06:47.275Z,99.90
2019-05-16T18:09:17.049Z,99.90
2019-05-16T18:11:46.924Z,99.90
2019-05-16T18:14:17.342Z,99.90
2019-05-16T18:16:53.649Z,99.90
2019-05-16T18:19:17.787Z,99.90
2019-05-16T18:21:47.261Z,99.90
2019-05-16T18:24:16.811Z,99.90
2019-05-16T18:26:46.143Z,99.90
2019-05-16T18:29:16.357Z,99.90
2019-05-16T18:31:47.198Z,99.90
2019-05-16T18:34:17.023Z,99.90
2019-05-16T18:36:46.773Z,99.90
2019-05-16T18:39:16.080Z,99.90
2019-05-16T18:41:47.176Z,99.90
2019-05-16T18:44:16.693Z,99.90
2019-05-16T18:46:47.106Z,99.90
2019-05-16T18:49:16.433Z,99.90
2019-05-16T18:51:46.539Z,99.90
2019-05-16T18:54:17.359Z,99.90
2019-05-16T18:56:47.410Z,99.90
2019-05-16T18:59:17.057Z,99.90
2019-05-16T19:01:46.911Z,99.90
2019-05-16T19:04:17.626Z,99.90
2019-05-16T19:06:47.329Z,99.90
2019-05-16T19:09:16.731Z,99.90
2019-05-16T19:11:46.203Z,99.90
2019-05-16T19:14:16.953Z,99.90
2019-05-16T19:16:48.945Z,99.90
2019-05-16T19:19:17.305Z,99.90
2019-05-16T19:21:46.472Z,99.90
2019-05-16T19:24:16.408Z,99.90
2019-05-16T19:26:47.026Z,99.90
2019-05-16T19:29:17.461Z,99.90
2019-05-16T19:31:49.908Z,99.90
2019-05-16T19:34:17.729Z,99.90
2019-05-16T19:36:47.138Z,99.90
2019-05-16T19:39:16.646Z,99.90
2019-05-16T19:41:46.584Z,99.90
2019-05-16T19:44:16.801Z,99.90
2019-05-16T19:46:46.845Z,99.90
2019-05-16T19:49:16.589Z,99.90
2019-05-16T19:51:48.503Z,99.90
2019-05-16T19:54:16.990Z,99.90
2019-05-16T19:56:46.958Z,99.90
2019-05-16T19:59:16.951Z,99.90
2019-05-16T20:01:46.444Z,99.90
2019-05-16T20:04:18.490Z,99.90
2019-05-16T20:06:47.853Z,99.90
2019-05-16T20:09:17.151Z,99.90
2019-05-16T20:11:46.546Z,99.90
2019-05-16T20:14:16.919Z,99.90
2019-05-16T20:16:47.180Z,99.90
2019-05-16T20:19:16.807Z,99.90
2019-05-16T20:21:47.618Z,99.90
2019-05-16T20:24:16.976Z,99.90
2019-05-16T20:26:46.512Z,99.90
2019-05-16T20:29:17.109Z,99.90
2019-05-16T20:31:47.546Z,99.90
2019-05-16T20:34:17.735Z,99.90
2019-05-16T20:36:47.024Z,99.90
2019-05-16T20:39:17.210Z,99.90
2019-05-16T20:41:47.501Z,99.90
2019-05-16T20:44:17.483Z,99.90
2019-05-16T20:46:49.410Z,99.90
2019-05-16T20:49:17.754Z,99.90
2019-05-16T20:51:49.940Z,99.90
2019-05-16T20:54:17.790Z,99.90
2019-05-16T20:56:49.377Z,99.90
2019-05-16T20:59:17.824Z,99.90
2019-05-16T21:01:49.222Z,99.90
2019-05-16T21:04:18.357Z,99.90
2019-05-16T21:06:57.410Z,99.90
2019-05-16T21:09:19.225Z,99.90
2019-05-16T21:11:50.081Z,99.90
2019-05-16T21:14:19.993Z,99.90
2019-05-16T21:16:49.580Z,99.90
2019-05-16T21:19:18.925Z,99.90
2019-05-16T21:21:48.158Z,99.90
2019-05-16T21:24:17.400Z,99.90
2019-05-16T21:26:46.620Z,99.90
2019-05-16T21:29:16.473Z,99.90
2019-05-16T21:31:47.349Z,99.90
2019-05-16T21:34:19.156Z,99.90
2019-05-16T21:36:48.449Z,99.90
2019-05-16T21:39:17.746Z,99.90
2019-05-16T21:41:47.570Z,99.90
2019-05-16T21:44:17.128Z,99.90
2019-05-16T21:46:46.919Z,99.90
2019-05-16T21:49:19.265Z,99.90
2019-05-16T21:51:47.289Z,99.90
2019-05-16T21:54:16.423Z,99.90
2019-05-16T21:56:46.788Z,99.90
2019-05-16T21:59:16.077Z,99.90
2019-05-16T22:01:47.323Z,99.90
2019-05-16T22:04:16.943Z,99.90
2019-05-16T22:06:47.465Z,99.90
2019-05-16T22:09:16.865Z,99.90
2019-05-16T22:11:46.540Z,99.90
2019-05-16T22:14:18.747Z,99.90
2019-05-16T22:16:47.961Z,99.90
2019-05-16T22:19:17.187Z,99.90
2019-05-16T22:21:46.801Z,99.90
2019-05-16T22:24:17.240Z,99.90
2019-05-16T22:26:46.768Z,99.90
2019-05-16T22:29:17.025Z,99.90
2019-05-16T22:31:47.111Z,99.90
2019-05-16T22:34:16.946Z,99.90
2019-05-16T22:36:49.084Z,99.90
2019-05-16T22:39:17.353Z,99.90
2019-05-16T22:41:46.699Z,99.90
2019-05-16T22:44:17.604Z,99.90
2019-05-16T22:46:47.080Z,99.90
2019-05-16T22:49:16.926Z,99.90
2019-05-16T22:51:46.264Z,99.90
2019-05-16T22:54:17.170Z,99.90
2019-05-16T22:56:46.549Z,99.90
2019-05-16T22:59:16.656Z,99.90
2019-05-16T23:01:46.296Z,99.90
2019-05-16T23:04:16.761Z,99.90
2019-05-16T23:06:46.090Z,99.90
2019-05-16T23:09:16.440Z,99.90
2019-05-16T23:11:46.013Z,99.90
2019-05-16T23:14:17.094Z,99.90
2019-05-16T23:16:46.503Z,99.90
2019-05-16T23:19:17.177Z,99.90
2019-05-16T23:21:47.515Z,99.90
2019-05-16T23:24:17.360Z,99.90
2019-05-16T23:26:46.963Z,99.90
2019-05-16T23:29:17.002Z,99.90
2019-05-16T23:31:47.188Z,99.90
2019-05-16T23:34:18.776Z,99.90
2019-05-16T23:36:47.783Z,99.90
2019-05-16T23:39:17.308Z,99.90
2019-05-16T23:41:47.420Z,99.90
2019-05-16T23:44:16.756Z,99.90
2019-05-16T23:46:47.064Z,99.90
2019-05-16T23:49:16.938Z,99.90
2019-05-16T23:51:47.295Z,99.90
2019-05-16T23:54:17.270Z,99.90
2019-05-16T23:56:46.637Z,99.90
2019-05-16T23:59:17.167Z,99.90
